Time;durP1;ratioP1;P1;durP2;ratioP2;P2;SDS_P1;SDS_P2;PMS_P1;PMS_P2;Temp;Humidity;BMP_temperature;BMP_pressure;BME280_temperature;BME280_humidity;BME280_pressure;Samples;Min_cycle;Max_cycle;Signal;HPM_P1;HPM_P2
2022/12/21 00:01:56;;;;;;;9.47;5.00;;;4.00;98.00;;;;;;4992451;28;20489;-78
2022/12/21 00:04:25;;;;;;;5.00;3.27;;;4.10;98.00;;;;;;4993043;28;21099;-77
2022/12/21 00:06:52;;;;;;;11.10;4.77;;;4.20;98.00;;;;;;4992526;28;20540;-77
2022/12/21 00:09:19;;;;;;;7.00;4.17;;;4.20;98.00;;;;;;4992748;28;20507;-77
2022/12/21 00:11:46;;;;;;;7.00;3.83;;;4.30;98.00;;;;;;4992796;28;20853;-77
2022/12/21 00:14:13;;;;;;;13.00;4.50;;;4.40;98.00;;;;;;4992913;28;20477;-78
2022/12/21 00:16:42;;;;;;;15.97;5.53;;;4.40;98.00;;;;;;4994338;28;21009;-76
2022/12/21 00:19:13;;;;;;;5.70;3.93;;;4.40;98.00;;;;;;4996259;28;20456;-77
2022/12/21 00:21:41;;;;;;;10.50;3.93;;;4.40;98.00;;;;;;4996418;28;20524;-77
2022/12/21 00:24:09;;;;;;;10.93;5.07;;;4.40;98.00;;;;;;4996571;28;20467;-77
2022/12/21 00:26:38;;;;;;;6.37;3.70;;;4.40;98.00;;;;;;4996588;28;20463;-78
2022/12/21 00:29:06;;;;;;;5.23;3.60;;;4.30;98.00;;;;;;4996256;28;20473;-77
2022/12/21 00:31:35;;;;;;;10.70;5.60;;;4.30;98.00;;;;;;4996263;28;20843;-77
2022/12/21 00:34:02;;;;;;;9.60;4.20;;;4.40;98.00;;;;;;4978572;28;20976;-77
2022/12/21 00:36:30;;;;;;;6.47;3.47;;;4.30;98.00;;;;;;4995565;28;20462;-77
2022/12/21 00:38:59;;;;;;;13.50;4.63;;;4.30;98.00;;;;;;4995441;28;20457;-77
2022/12/21 00:41:28;;;;;;;4.73;3.43;;;4.30;98.00;;;;;;4995077;28;20492;-76
2022/12/21 00:43:55;;;;;;;10.53;4.20;;;4.40;98.00;;;;;;4995927;28;20484;-76
2022/12/21 00:46:25;;;;;;;6.80;3.80;;;4.30;98.00;;;;;;4995919;28;20470;-76
2022/12/21 00:48:52;;;;;;;8.83;4.77;;;4.30;98.00;;;;;;4996105;28;20469;-76
2022/12/21 00:51:21;;;;;;;5.23;3.60;;;4.30;98.00;;;;;;4995665;28;20521;-77
2022/12/21 00:53:54;;;;;;;3.40;3.00;;;4.20;98.00;;;;;;4995550;28;20486;-76
2022/12/21 00:56:24;;;;;;;14.17;5.33;;;4.30;98.00;;;;;;4996075;28;20474;-76
2022/12/21 00:58:51;;;;;;;7.33;3.60;;;4.30;98.00;;;;;;4995721;28;20503;-76
2022/12/21 01:01:21;;;;;;;4.73;2.67;;;4.40;98.00;;;;;;4995481;28;20509;-76
2022/12/21 01:03:49;;;;;;;5.10;3.33;;;4.40;98.00;;;;;;4995192;28;20455;-76
2022/12/21 01:06:18;;;;;;;3.97;3.40;;;4.50;98.00;;;;;;4994857;28;20957;-76
2022/12/21 01:08:45;;;;;;;8.90;4.60;;;4.40;98.00;;;;;;4994894;28;20983;-77
2022/12/21 01:11:14;;;;;;;7.53;3.87;;;4.30;98.00;;;;;;4995148;28;20458;-77
2022/12/21 01:13:43;;;;;;;10.63;4.10;;;4.30;98.00;;;;;;4994703;28;20465;-77
2022/12/21 01:16:24;;;;;;;5.23;3.00;;;4.30;98.00;;;;;;4994931;28;20557;-77
2022/12/21 01:18:52;;;;;;;6.80;3.40;;;4.30;98.00;;;;;;4994945;28;20856;-77
2022/12/21 01:21:21;;;;;;;4.77;3.30;;;4.40;98.00;;;;;;4994732;28;20488;-76
2022/12/21 01:23:49;;;;;;;8.03;4.57;;;4.40;98.00;;;;;;4994633;28;20465;-77
2022/12/21 01:26:17;;;;;;;10.17;3.87;;;4.30;98.00;;;;;;4994556;28;20481;-77
2022/12/21 01:28:46;;;;;;;5.20;3.57;;;4.40;98.00;;;;;;4994219;28;20458;-76
2022/12/21 01:31:13;;;;;;;7.43;3.30;;;4.30;98.00;;;;;;4994759;28;20469;-77
2022/12/21 01:33:40;;;;;;;5.97;3.80;;;4.20;98.00;;;;;;4994345;28;20467;-76
2022/12/21 01:36:10;;;;;;;8.07;4.40;;;4.20;98.00;;;;;;4994198;28;20467;-77
2022/12/21 01:38:39;;;;;;;5.30;4.40;;;4.30;98.00;;;;;;4994201;28;20546;-76
2022/12/21 01:41:06;;;;;;;5.93;3.83;;;4.40;98.00;;;;;;4994125;28;20515;-76
2022/12/21 01:43:53;;;;;;;4.60;2.90;;;4.40;98.00;;;;;;4992996;28;20465;-76
2022/12/21 01:46:27;;;;;;;7.20;3.00;;;4.60;98.00;;;;;;4994314;28;20469;-77
2022/12/21 01:49:04;;;;;;;3.60;2.70;;;4.60;98.00;;;;;;4992940;28;20947;-76
2022/12/21 01:51:34;;;;;;;4.33;3.00;;;4.60;98.00;;;;;;4994105;28;21132;-76
2022/12/21 01:54:05;;;;;;;5.57;3.33;;;4.50;98.00;;;;;;4994121;28;20987;-76
2022/12/21 01:56:39;;;;;;;4.33;3.43;;;4.40;98.00;;;;;;4994145;28;20467;-76
2022/12/21 01:59:12;;;;;;;5.63;3.33;;;4.40;98.00;;;;;;4993053;28;20465;-76
2022/12/21 02:01:41;;;;;;;11.87;4.20;;;4.40;98.00;;;;;;4994608;28;20492;-76
2022/12/21 02:04:08;;;;;;;5.33;3.60;;;4.60;98.00;;;;;;4993894;28;20461;-76
2022/12/21 02:06:41;;;;;;;8.17;4.30;;;4.50;98.00;;;;;;4995028;28;20895;-76
2022/12/21 02:09:10;;;;;;;5.97;3.10;;;4.50;98.00;;;;;;4994005;28;20472;-76
2022/12/21 02:11:37;;;;;;;8.00;4.03;;;4.40;98.00;;;;;;4994856;28;20462;-76
2022/12/21 02:14:10;;;;;;;4.10;3.60;;;4.50;98.00;;;;;;4994891;28;20468;-76
2022/12/21 02:16:46;;;;;;;7.57;3.20;;;4.50;98.00;;;;;;4994595;28;20837;-77
2022/12/21 02:19:54;;;;;;;7.20;3.77;;;4.50;98.00;;;;;;4994432;28;20953;-77
2022/12/21 02:22:31;;;;;;;5.07;3.50;;;4.50;98.00;;;;;;4994297;28;20535;-76
2022/12/21 02:25:31;;;;;;;3.33;2.73;;;4.50;98.00;;;;;;4994409;28;20970;-76
2022/12/21 02:28:28;;;;;;;2.93;2.73;;;4.50;98.00;;;;;;4994161;28;20462;-76
2022/12/21 02:31:07;;;;;;;7.00;4.27;;;4.50;98.00;;;;;;4994153;28;20990;-76
2022/12/21 02:33:52;;;;;;;4.83;3.90;;;4.50;98.00;;;;;;4994165;28;20461;-76
2022/12/21 02:36:32;;;;;;;8.00;3.40;;;4.60;98.00;;;;;;4994390;28;20461;-76
2022/12/21 02:39:19;;;;;;;12.30;3.80;;;4.60;98.00;;;;;;4993731;28;20467;-77
2022/12/21 02:42:00;;;;;;;4.73;2.43;;;4.60;98.00;;;;;;4994232;28;21041;-76
2022/12/21 02:44:43;;;;;;;5.00;2.90;;;4.60;98.00;;;;;;4992914;28;20468;-76
2022/12/21 02:47:19;;;;;;;5.17;2.97;;;4.60;98.00;;;;;;4994377;28;20470;-76
2022/12/21 02:49:51;;;;;;;4.97;3.03;;;4.60;98.00;;;;;;4992731;28;20457;-76
2022/12/21 02:52:26;;;;;;;4.00;3.13;;;4.60;98.00;;;;;;4992805;28;20825;-76
2022/12/21 02:54:58;;;;;;;3.73;2.63;;;4.70;98.00;;;;;;4993828;28;20462;-76
2022/12/21 02:57:31;;;;;;;4.47;2.87;;;4.90;98.00;;;;;;4993995;28;20526;-76
2022/12/21 03:00:00;;;;;;;3.27;2.93;;;4.90;98.00;;;;;;4993683;28;20464;-76
2022/12/21 03:03:47;;;;;;;3.10;2.77;;;4.90;98.00;;;;;;4993672;28;20480;-76
2022/12/21 03:05:58;;;;;;;5.60;2.60;;;4.90;98.00;;;;;;4993290;28;20846;-76
2022/12/21 03:08:36;;;;;;;2.80;2.10;;;4.80;98.00;;;;;;4992351;28;21014;-77
2022/12/21 03:11:04;;;;;;;4.60;3.10;;;4.70;98.00;;;;;;4993572;28;20465;-76
2022/12/21 03:13:39;;;;;;;2.70;2.30;;;4.80;98.00;;;;;;4993216;28;20524;-76
2022/12/21 03:16:16;;;;;;;4.60;2.70;;;4.80;98.00;;;;;;4992065;28;20462;-76
2022/12/21 03:18:57;;;;;;;4.07;2.90;;;4.90;98.00;;;;;;4990252;28;20466;-76
2022/12/21 03:21:32;;;;;;;4.13;2.23;;;4.80;98.00;;;;;;4993024;28;20470;-76
2022/12/21 03:24:05;;;;;;;16.37;3.80;;;4.70;98.00;;;;;;4993094;28;20456;-76
2022/12/21 03:26:35;;;;;;;4.40;2.90;;;4.70;98.00;;;;;;4993219;28;20509;-78
2022/12/21 03:29:04;;;;;;;5.87;2.30;;;4.70;98.00;;;;;;4991823;28;20938;-77
2022/12/21 03:31:35;;;;;;;5.10;2.90;;;4.80;98.00;;;;;;4993465;28;20466;-76
2022/12/21 03:34:08;;;;;;;6.40;3.60;;;4.80;98.00;;;;;;4993370;28;20473;-76
2022/12/21 03:36:42;;;;;;;3.43;2.90;;;4.90;98.00;;;;;;4993016;28;20465;-76
2022/12/21 03:39:13;;;;;;;3.73;3.10;;;5.30;98.00;;;;;;4993125;28;20464;-76
2022/12/21 03:41:45;;;;;;;3.03;2.40;;;5.30;98.00;;;;;;4992794;28;20549;-76
2022/12/21 03:44:19;;;;;;;4.00;3.17;;;5.40;98.00;;;;;;4993028;28;20951;-76
2022/12/21 03:46:52;;;;;;;3.50;3.00;;;5.40;98.00;;;;;;4992884;28;20465;-75
2022/12/21 03:49:26;;;;;;;7.70;2.67;;;5.50;98.00;;;;;;4993015;28;20468;-76
2022/12/21 03:51:56;;;;;;;4.83;3.03;;;5.40;98.00;;;;;;4992811;28;20524;-76
2022/12/21 03:54:32;;;;;;;4.00;2.40;;;5.30;98.00;;;;;;4993162;28;20812;-77
2022/12/21 03:56:59;;;;;;;7.40;3.90;;;5.20;98.00;;;;;;4992762;28;20928;-76
2022/12/21 03:59:27;;;;;;;9.30;4.03;;;5.30;98.00;;;;;;4991502;28;20475;-76
2022/12/21 04:02:05;;;;;;;3.73;2.40;;;5.30;98.00;;;;;;4992638;28;20490;-76
2022/12/21 04:04:38;;;;;;;4.80;2.90;;;5.40;98.00;;;;;;4992897;28;20504;-76
2022/12/21 04:07:08;;;;;;;2.27;1.83;;;5.50;98.00;;;;;;4992572;28;20467;-76
2022/12/21 04:09:38;;;;;;;1.80;1.63;;;5.50;98.00;;;;;;4993162;28;20828;-77
2022/12/21 04:14:50;;;;;;;1.80;1.70;;;5.70;98.00;;;;;;4991729;28;20465;-77
2022/12/21 04:17:19;;;;;;;2.00;1.80;;;5.70;98.00;;;;;;4992668;28;20469;-77
2022/12/21 04:20:02;;;;;;;1.80;1.60;;;6.00;98.00;;;;;;4992197;28;20453;-77
2022/12/21 04:28:15;;;;;;;3.03;1.93;;;6.50;98.00;;;;;;4957179;28;20561;-77
2022/12/21 04:30:43;;;;;;;1.73;1.60;;;6.40;98.00;;;;;;4992664;28;20460;-77
2022/12/21 04:33:13;;;;;;;1.40;1.30;;;6.40;98.00;;;;;;4990682;28;20480;-77
2022/12/21 04:37:30;;;;;;;2.60;1.60;;;6.60;98.00;;;;;;4992412;28;20463;-77
2022/12/21 04:38:31;;;;;;;1.60;1.47;;;6.70;98.00;;;;;;4991921;28;20472;-77
2022/12/21 04:40:58;;;;;;;2.10;1.60;;;7.00;98.00;;;;;;4992158;28;20557;-76
2022/12/21 04:43:26;;;;;;;3.33;1.63;;;7.20;98.00;;;;;;4992692;28;20484;-76
2022/12/21 04:46:01;;;;;;;1.70;1.20;;;7.30;98.00;;;;;;4991453;28;20484;-77
2022/12/21 04:48:28;;;;;;;4.90;2.00;;;7.30;98.00;;;;;;4992527;28;20568;-77
2022/12/21 04:50:57;;;;;;;1.70;1.33;;;7.50;98.00;;;;;;4992338;28;21271;-77
2022/12/21 04:53:24;;;;;;;1.10;1.10;;;7.70;98.00;;;;;;4992411;28;20468;-76
2022/12/21 04:55:51;;;;;;;1.50;1.40;;;7.90;98.00;;;;;;4992144;28;20960;-77
2022/12/21 04:58:18;;;;;;;1.13;1.13;;;8.10;98.00;;;;;;4991176;28;20457;-77
2022/12/21 05:00:45;;;;;;;1.80;1.60;;;8.10;98.00;;;;;;4992326;28;20942;-77
2022/12/21 05:03:12;;;;;;;1.87;1.40;;;8.20;98.00;;;;;;4994661;28;21164;-76
2022/12/21 05:05:39;;;;;;;2.07;1.50;;;8.20;98.00;;;;;;4995799;28;20468;-77
2022/12/21 05:08:08;;;;;;;2.50;1.50;;;8.10;98.00;;;;;;4995645;28;20459;-77
2022/12/21 05:10:35;;;;;;;3.20;1.60;;;8.10;98.00;;;;;;4994411;28;20459;-77
2022/12/21 05:13:02;;;;;;;1.63;1.43;;;8.10;98.00;;;;;;4995769;28;20469;-77
2022/12/21 05:15:30;;;;;;;1.83;1.27;;;8.10;98.00;;;;;;4995697;28;20466;-77
2022/12/21 05:17:58;;;;;;;3.27;1.53;;;8.10;98.00;;;;;;4995384;28;20981;-77
2022/12/21 05:20:25;;;;;;;1.70;1.50;;;8.20;98.00;;;;;;4995609;28;20675;-77
2022/12/21 05:22:52;;;;;;;2.80;1.87;;;8.20;98.00;;;;;;4995215;28;20477;-77
2022/12/21 05:25:21;;;;;;;3.97;1.77;;;8.20;98.00;;;;;;4995467;28;20461;-77
2022/12/21 05:27:48;;;;;;;1.70;1.40;;;8.20;98.00;;;;;;4994806;28;20470;-77
2022/12/21 05:30:18;;;;;;;2.17;1.93;;;8.20;98.00;;;;;;4994603;28;20893;-77
2022/12/21 05:32:45;;;;;;;3.53;2.33;;;8.20;98.00;;;;;;4994726;28;20458;-77
2022/12/21 05:35:12;;;;;;;2.90;2.70;;;8.10;98.00;;;;;;4994111;28;20467;-77
2022/12/21 05:37:39;;;;;;;3.13;2.30;;;8.10;98.00;;;;;;4995254;28;20522;-77
2022/12/21 05:40:08;;;;;;;2.57;2.30;;;8.10;98.00;;;;;;4995125;28;20511;-77
2022/12/21 05:42:36;;;;;;;3.27;2.50;;;8.00;98.00;;;;;;4995169;28;20484;-77
2022/12/21 05:45:04;;;;;;;5.13;2.83;;;8.00;98.00;;;;;;4994929;28;20466;-77
2022/12/21 05:47:31;;;;;;;4.17;2.50;;;7.90;98.00;;;;;;4994901;28;20533;-77
2022/12/21 05:49:58;;;;;;;5.27;2.63;;;7.90;98.00;;;;;;4993948;28;20469;-77
2022/12/21 05:52:25;;;;;;;1.70;1.63;;;7.90;98.00;;;;;;4994963;28;20477;-77
2022/12/21 05:54:52;;;;;;;1.80;1.70;;;7.90;98.00;;;;;;4994754;28;20459;-77
2022/12/21 05:57:19;;;;;;;1.97;1.60;;;8.00;98.00;;;;;;4994956;28;20463;-77
2022/12/21 05:59:48;;;;;;;2.53;1.70;;;8.00;98.00;;;;;;4994918;28;20461;-77
2022/12/21 06:02:15;;;;;;;1.83;1.30;;;8.00;98.00;;;;;;4977136;28;20513;-77
2022/12/21 06:04:43;;;;;;;3.27;1.37;;;8.10;98.00;;;;;;4994545;28;20450;-77
2022/12/21 06:07:11;;;;;;;2.50;1.60;;;8.10;98.00;;;;;;4994575;28;20466;-77
2022/12/21 06:09:38;;;;;;;3.10;1.50;;;8.20;98.00;;;;;;4994807;28;20455;-77
2022/12/21 06:12:06;;;;;;;1.50;1.33;;;8.20;98.00;;;;;;4994375;28;20465;-77
2022/12/21 06:14:33;;;;;;;3.00;1.63;;;8.30;98.00;;;;;;4993914;28;20904;-77
2022/12/21 06:17:02;;;;;;;1.77;1.67;;;8.40;98.00;;;;;;4994422;28;20452;-77
2022/12/21 06:19:29;;;;;;;1.63;1.20;;;8.50;98.00;;;;;;4994366;28;20464;-77
2022/12/21 06:21:57;;;;;;;1.40;1.23;;;8.60;98.00;;;;;;4994365;28;20467;-77
2022/12/21 06:24:24;;;;;;;1.60;1.37;;;8.80;98.00;;;;;;4994373;28;20486;-77
2022/12/21 06:26:53;;;;;;;1.67;1.17;;;8.90;98.00;;;;;;4993216;28;20467;-78
2022/12/21 06:29:20;;;;;;;1.60;1.50;;;8.90;98.00;;;;;;4993195;28;20458;-77
2022/12/21 06:31:48;;;;;;;1.50;1.33;;;9.00;98.00;;;;;;4994291;28;20537;-77
2022/12/21 06:34:17;;;;;;;2.50;1.50;;;9.10;98.00;;;;;;4993148;28;20457;-78
2022/12/21 06:36:45;;;;;;;2.20;1.63;;;9.20;98.00;;;;;;4994261;28;20471;-78
2022/12/21 06:39:12;;;;;;;2.07;1.50;;;9.20;98.00;;;;;;4994113;28;20882;-77
2022/12/21 06:41:39;;;;;;;4.67;1.90;;;9.10;98.00;;;;;;4992466;28;20458;-77
2022/12/21 06:44:09;;;;;;;2.53;1.63;;;9.10;98.00;;;;;;4994308;28;20475;-77
2022/12/21 06:46:36;;;;;;;1.67;1.67;;;9.00;98.00;;;;;;4993875;28;20455;-77
2022/12/21 06:49:04;;;;;;;1.70;1.50;;;9.10;98.00;;;;;;4994000;28;20469;-78
2022/12/21 06:51:34;;;;;;;1.83;1.23;;;9.20;98.00;;;;;;4992476;28;20482;-77
2022/12/21 06:54:01;;;;;;;1.87;1.20;;;9.20;98.00;;;;;;4993884;28;20457;-78
2022/12/21 06:56:33;;;;;;;1.30;1.13;;;9.30;98.00;;;;;;4993678;28;20669;-77
2022/12/21 06:59:01;;;;;;;2.27;1.80;;;9.40;98.00;;;;;;4993608;28;20457;-78
2022/12/21 07:01:33;;;;;;;1.20;1.20;;;9.50;98.00;;;;;;4993652;28;20472;-77
2022/12/21 07:04:00;;;;;;;1.10;0.97;;;9.70;98.00;;;;;;4992246;28;20480;-77
2022/12/21 07:06:29;;;;;;;1.83;1.40;;;9.80;98.00;;;;;;4993438;28;20515;-78
2022/12/21 07:08:58;;;;;;;1.93;1.50;;;9.80;98.00;;;;;;4993796;28;20471;-78
2022/12/21 07:11:28;;;;;;;1.60;1.23;;;9.80;98.00;;;;;;4992055;28;20460;-78
2022/12/21 07:13:56;;;;;;;1.67;1.50;;;9.90;98.00;;;;;;4993678;28;20560;-78
2022/12/21 07:16:24;;;;;;;1.20;1.10;;;9.90;98.00;;;;;;4993163;28;20453;-77
2022/12/21 07:18:53;;;;;;;1.40;1.30;;;9.90;98.00;;;;;;4993465;28;20465;-77
2022/12/21 07:21:21;;;;;;;1.67;1.40;;;10.00;98.00;;;;;;4992209;28;20535;-78
2022/12/21 07:23:52;;;;;;;1.37;1.30;;;10.00;98.00;;;;;;4993247;28;20547;-77
2022/12/21 07:26:22;;;;;;;1.90;1.37;;;10.00;98.00;;;;;;4993283;28;20998;-78
2022/12/21 07:28:50;;;;;;;2.30;1.70;;;10.00;98.00;;;;;;4993558;28;20861;-77
2022/12/21 07:31:19;;;;;;;1.40;1.30;;;10.00;98.00;;;;;;4992879;28;20452;-78
2022/12/21 07:33:46;;;;;;;1.77;1.10;;;10.00;98.00;;;;;;4993334;28;20460;-78
2022/12/21 07:36:14;;;;;;;1.20;1.20;;;10.00;98.00;;;;;;4992767;28;20460;-74
2022/12/21 07:38:42;;;;;;;2.33;1.30;;;10.00;98.00;;;;;;4993008;28;20496;-75
2022/12/21 07:41:12;;;;;;;1.30;1.10;;;10.00;98.00;;;;;;4992680;28;20499;-75
2022/12/21 07:43:41;;;;;;;1.37;1.33;;;10.00;98.00;;;;;;4992665;28;20544;-74
2022/12/21 07:46:11;;;;;;;2.17;1.40;;;10.10;98.00;;;;;;4992837;28;20468;-75
2022/12/21 07:48:39;;;;;;;1.73;1.50;;;10.00;98.00;;;;;;4992640;28;20466;-74
2022/12/21 07:51:07;;;;;;;3.20;1.90;;;9.90;98.00;;;;;;4992685;28;20499;-74
2022/12/21 07:53:35;;;;;;;2.40;1.67;;;9.80;98.00;;;;;;4992588;28;20449;-75
2022/12/21 07:56:03;;;;;;;2.43;1.93;;;9.70;98.00;;;;;;4992603;28;20467;-75
2022/12/21 07:58:31;;;;;;;4.70;1.80;;;9.60;98.00;;;;;;4992625;28;20462;-74
2022/12/21 08:01:06;;;;;;;12.30;4.50;;;9.50;98.00;;;;;;4991177;28;20464;-74
2022/12/21 08:03:34;;;;;;;3.50;2.20;;;9.40;98.00;;;;;;4992556;28;20489;-75
2022/12/21 08:06:01;;;;;;;4.20;1.70;;;9.40;98.00;;;;;;4992740;28;20460;-74
2022/12/21 08:08:29;;;;;;;2.30;1.90;;;9.30;98.00;;;;;;4992623;28;20490;-74
2022/12/21 08:10:57;;;;;;;4.37;2.03;;;9.30;98.00;;;;;;4992736;28;20514;-74
2022/12/21 08:13:25;;;;;;;2.30;2.00;;;9.40;98.00;;;;;;4992714;28;20459;-74
2022/12/21 08:16:02;;;;;;;3.00;2.00;;;9.40;98.00;;;;;;4992619;28;20541;-74
2022/12/21 08:18:30;;;;;;;3.93;2.23;;;9.40;98.00;;;;;;4992654;28;20460;-74
2022/12/21 08:20:58;;;;;;;1.90;1.57;;;9.30;98.00;;;;;;4992412;28;20456;-75
2022/12/21 08:23:26;;;;;;;5.97;2.93;;;9.20;98.00;;;;;;4991243;28;20491;-74
2022/12/21 08:25:53;;;;;;;3.10;2.10;;;9.20;98.00;;;;;;4992706;28;20514;-74
2022/12/21 08:28:20;;;;;;;3.70;1.90;;;9.20;98.00;;;;;;4992455;28;20460;-74
2022/12/21 08:30:47;;;;;;;3.73;2.50;;;9.10;98.00;;;;;;4992121;28;20864;-75
2022/12/21 08:33:14;;;;;;;2.47;1.70;;;9.10;98.00;;;;;;4992632;28;20502;-74
2022/12/21 08:35:44;;;;;;;9.17;2.70;;;9.10;98.00;;;;;;4992081;28;20469;-75
2022/12/21 08:38:11;;;;;;;1.53;1.37;;;9.10;98.00;;;;;;4994946;28;20459;-74
2022/12/21 08:40:38;;;;;;;3.07;2.07;;;9.10;98.00;;;;;;4996096;28;20745;-75
2022/12/21 08:43:05;;;;;;;1.83;1.40;;;9.10;98.00;;;;;;4995837;28;20970;-74
2022/12/21 08:45:34;;;;;;;2.93;1.90;;;9.20;98.00;;;;;;4995469;28;20554;-73
2022/12/21 08:48:03;;;;;;;4.13;2.30;;;9.10;98.00;;;;;;4995181;28;20456;-75
2022/12/21 08:50:30;;;;;;;2.70;2.13;;;9.10;98.00;;;;;;4971212;28;20502;-75
2022/12/21 08:52:59;;;;;;;4.47;2.13;;;9.10;98.00;;;;;;4993027;28;20468;-75
2022/12/21 08:55:26;;;;;;;2.30;1.63;;;9.10;98.00;;;;;;4975609;28;20456;-74
2022/12/21 08:57:53;;;;;;;3.80;2.17;;;9.00;98.00;;;;;;4993449;28;20460;-75
2022/12/21 09:00:21;;;;;;;2.80;2.03;;;8.90;98.00;;;;;;4993006;28;20463;-75
2022/12/21 09:02:48;;;;;;;7.27;2.70;;;9.10;98.00;;;;;;4992996;28;20599;-74
2022/12/21 09:05:15;;;;;;;4.40;2.13;;;9.10;98.00;;;;;;4993247;28;20550;-74
2022/12/21 09:07:42;;;;;;;6.40;2.13;;;9.10;98.00;;;;;;4993015;28;20811;-74
2022/12/21 09:10:12;;;;;;;2.90;2.03;;;9.10;98.00;;;;;;4975483;28;20524;-75
2022/12/21 09:12:39;;;;;;;4.03;2.70;;;9.10;98.00;;;;;;4991943;28;21042;-74
2022/12/21 09:15:07;;;;;;;12.73;3.40;;;9.20;98.00;;;;;;4993208;28;20474;-75
2022/12/21 09:17:35;;;;;;;3.97;2.70;;;9.20;98.00;;;;;;4994784;28;20466;-75
2022/12/21 09:20:02;;;;;;;4.50;3.13;;;9.10;98.00;;;;;;4994776;28;21043;-75
2022/12/21 09:22:29;;;;;;;3.53;2.53;;;9.20;98.00;;;;;;4994487;28;20557;-75
2022/12/21 09:24:56;;;;;;;4.80;2.77;;;9.20;98.00;;;;;;4994773;28;20499;-75
2022/12/21 09:27:24;;;;;;;7.87;3.77;;;9.20;98.00;;;;;;4994640;28;20460;-75
2022/12/21 09:29:51;;;;;;;3.50;2.77;;;9.40;98.00;;;;;;4994653;28;20479;-75
2022/12/21 09:32:18;;;;;;;5.43;3.60;;;9.30;98.00;;;;;;4994433;28;20460;-75
2022/12/21 09:34:45;;;;;;;5.07;2.47;;;9.30;98.00;;;;;;4994324;28;20884;-75
2022/12/21 09:37:12;;;;;;;5.90;3.20;;;9.40;98.00;;;;;;4994432;28;20460;-75
2022/12/21 09:39:40;;;;;;;9.87;3.93;;;9.50;98.00;;;;;;4994415;28;20464;-74
2022/12/21 09:42:23;;;;;;;3.97;2.23;;;9.50;98.00;;;;;;4977218;28;20825;-75
2022/12/21 09:45:08;;;;;;;4.80;2.50;;;9.40;98.00;;;;;;4994417;28;20499;-75
2022/12/21 09:47:42;;;;;;;3.97;2.23;;;9.40;98.00;;;;;;4993959;28;20470;-75
2022/12/21 09:50:20;;;;;;;4.47;2.80;;;9.40;98.00;;;;;;4994169;28;20465;-74
2022/12/21 09:52:51;;;;;;;6.80;3.00;;;9.30;98.00;;;;;;4993947;28;21163;-75
2022/12/21 09:55:30;;;;;;;4.23;3.03;;;9.30;98.00;;;;;;4994007;28;20510;-75
2022/12/21 09:58:02;;;;;;;9.20;4.13;;;9.20;98.00;;;;;;4994041;28;20457;-75
2022/12/21 10:00:34;;;;;;;6.63;3.50;;;9.20;98.00;;;;;;4994014;28;20457;-75
2022/12/21 10:03:29;;;;;;;7.30;3.40;;;9.30;98.00;;;;;;4976597;28;20517;-74
2022/12/21 10:06:28;;;;;;;6.40;3.07;;;9.30;98.00;;;;;;4993763;28;20819;-74
2022/12/21 10:09:14;;;;;;;6.07;3.07;;;9.30;98.00;;;;;;4993847;28;20464;-74
2022/12/21 10:12:07;;;;;;;4.90;3.47;;;9.30;98.00;;;;;;4993243;28;20463;-74
2022/12/21 10:14:47;;;;;;;5.73;3.07;;;9.30;98.00;;;;;;4987229;28;20475;-75
2022/12/21 10:17:30;;;;;;;3.63;1.90;;;9.40;98.00;;;;;;4993946;28;20456;-75
2022/12/21 10:20:08;;;;;;;2.63;2.27;;;9.60;98.00;;;;;;4993826;28;20958;-75
2022/12/21 10:22:43;;;;;;;3.10;1.90;;;9.50;98.00;;;;;;4993299;28;20460;-74
2022/12/21 10:25:17;;;;;;;4.13;2.40;;;9.70;98.00;;;;;;4975058;28;20498;-75
2022/12/21 10:27:49;;;;;;;2.50;1.80;;;9.70;98.00;;;;;;4993246;28;20456;-75
2022/12/21 10:30:18;;;;;;;3.67;2.67;;;9.70;98.00;;;;;;4993404;28;20462;-74
2022/12/21 10:32:49;;;;;;;3.63;2.00;;;9.80;98.00;;;;;;4993041;28;20539;-74
2022/12/21 10:35:19;;;;;;;2.70;2.13;;;9.80;98.00;;;;;;4993327;28;20539;-74
2022/12/21 10:37:49;;;;;;;3.47;2.37;;;9.90;98.00;;;;;;4992738;28;20486;-74
2022/12/21 10:40:17;;;;;;;4.10;2.73;;;10.10;98.00;;;;;;4993220;28;20548;-74
2022/12/21 10:42:46;;;;;;;5.80;3.43;;;10.00;98.00;;;;;;4993491;28;20633;-75
2022/12/21 10:45:15;;;;;;;6.27;3.70;;;10.00;98.00;;;;;;4993356;28;21019;-73
2022/12/21 10:47:44;;;;;;;7.63;2.53;;;10.10;98.00;;;;;;4993274;28;20456;-74
2022/12/21 10:50:19;;;;;;;4.10;2.60;;;10.10;98.00;;;;;;4992126;28;20467;-73
2022/12/21 10:52:48;;;;;;;6.20;3.50;;;10.20;98.00;;;;;;4989850;28;20471;-74
2022/12/21 10:55:34;;;;;;;4.60;3.33;;;10.10;98.00;;;;;;4990585;28;20472;-74
2022/12/21 10:58:17;;;;;;;5.70;3.00;;;10.00;98.00;;;;;;4990381;28;20480;-74
2022/12/21 11:00:53;;;;;;;5.37;2.47;;;9.90;98.00;;;;;;4989899;28;21145;-74
2022/12/21 11:03:24;;;;;;;3.20;2.10;;;10.00;98.00;;;;;;4973780;28;20466;-74
2022/12/21 11:05:53;;;;;;;3.83;2.37;;;10.00;98.00;;;;;;4990029;28;20496;-74
2022/12/21 11:08:25;;;;;;;2.50;2.10;;;10.00;98.00;;;;;;4990182;28;20861;-74
2022/12/21 11:10:54;;;;;;;5.33;2.87;;;10.00;98.00;;;;;;4990343;28;20571;-75
2022/12/21 11:13:24;;;;;;;1.93;1.80;;;10.20;98.00;;;;;;4990543;28;20457;-74
2022/12/21 11:15:59;;;;;;;1.83;1.67;;;10.30;98.00;;;;;;4990285;28;20472;-74
2022/12/21 11:18:45;;;;;;;3.47;2.07;;;10.40;98.00;;;;;;4990210;28;20458;-73
2022/12/21 11:21:33;;;;;;;4.87;2.80;;;10.50;98.00;;;;;;4989970;28;20481;-74
2022/12/21 11:24:07;;;;;;;3.23;2.47;;;10.40;98.00;;;;;;4989851;28;20463;-74
2022/12/21 11:26:41;;;;;;;3.07;1.90;;;10.40;98.00;;;;;;4989899;28;20471;-74
2022/12/21 11:29:16;;;;;;;4.33;2.10;;;10.50;98.00;;;;;;4990195;28;21052;-74
2022/12/21 11:31:44;;;;;;;2.70;2.10;;;10.40;98.00;;;;;;4989534;28;20961;-74
2022/12/21 11:34:30;;;;;;;2.80;2.00;;;10.40;98.00;;;;;;4989487;28;20466;-74
2022/12/21 11:37:01;;;;;;;1.67;1.30;;;10.60;98.00;;;;;;4972367;28;20464;-74
2022/12/21 11:39:28;;;;;;;2.60;1.30;;;10.60;98.00;;;;;;4989959;28;20460;-74
2022/12/21 11:41:56;;;;;;;3.33;2.00;;;10.50;98.00;;;;;;4989794;28;20465;-73
2022/12/21 11:44:25;;;;;;;3.83;2.00;;;10.50;98.00;;;;;;4972853;28;21072;-73
2022/12/21 11:47:06;;;;;;;1.57;1.43;;;10.60;98.00;;;;;;4989701;28;20563;-72
2022/12/21 11:50:10;;;;;;;1.57;1.50;;;10.70;98.00;;;;;;4988373;28;21011;-74
2022/12/21 11:53:01;;;;;;;1.70;1.40;;;10.70;98.00;;;;;;4970001;28;20472;-75
2022/12/21 11:55:35;;;;;;;1.67;1.60;;;10.70;98.00;;;;;;4989990;28;20465;-73
2022/12/21 11:58:12;;;;;;;3.07;1.50;;;10.80;98.00;;;;;;4989808;28;21021;-73
2022/12/21 12:00:46;;;;;;;1.67;1.40;;;10.80;98.00;;;;;;4989431;28;20946;-75
2022/12/21 12:03:39;;;;;;;1.30;1.30;;;10.90;98.00;;;;;;4989995;28;20466;-74
2022/12/21 12:06:23;;;;;;;1.83;1.70;;;10.90;98.00;;;;;;4989892;28;20499;-75
2022/12/21 12:09:04;;;;;;;1.47;1.40;;;11.00;98.00;;;;;;4989453;28;20734;-75
2022/12/21 12:11:42;;;;;;;3.20;1.60;;;11.20;98.00;;;;;;4989415;28;20520;-72
2022/12/21 12:14:21;;;;;;;2.00;1.50;;;11.30;98.00;;;;;;4985888;28;20465;-73
2022/12/21 12:17:04;;;;;;;1.40;1.20;;;11.40;98.00;;;;;;4986751;28;20477;-74
2022/12/21 12:19:43;;;;;;;2.70;1.97;;;11.60;98.00;;;;;;4976691;28;20467;-74
2022/12/21 12:22:27;;;;;;;1.60;1.50;;;11.60;98.00;;;;;;4992917;28;20458;-75
2022/12/21 12:25:24;;;;;;;3.00;2.30;;;11.70;98.00;;;;;;4977118;28;20482;-74
2022/12/21 12:28:14;;;;;;;2.00;1.67;;;12.10;98.00;;;;;;4987682;28;20486;-74
2022/12/21 12:30:59;;;;;;;2.60;2.03;;;12.60;98.00;;;;;;4975844;28;20476;-74
2022/12/21 12:33:35;;;;;;;2.80;1.57;;;13.20;98.00;;;;;;4977478;28;20461;-75
2022/12/21 12:36:08;;;;;;;3.97;1.83;;;13.40;98.00;;;;;;4993382;28;20498;-75
2022/12/21 12:38:49;;;;;;;4.30;1.67;;;13.10;98.00;;;;;;4993396;28;21133;-75
2022/12/21 12:41:30;;;;;;;2.30;1.80;;;12.90;98.00;;;;;;4993672;28;20464;-74
2022/12/21 12:44:02;;;;;;;2.47;1.50;;;12.70;98.00;;;;;;4992854;28;21052;-74
2022/12/21 12:46:47;;;;;;;2.37;1.83;;;12.60;98.00;;;;;;4995301;28;20463;-75
2022/12/21 12:49:28;;;;;;;1.93;1.60;;;12.90;98.00;;;;;;4995333;28;20493;-75
2022/12/21 12:52:13;;;;;;;2.83;1.90;;;13.20;98.00;;;;;;4979184;28;20470;-76
2022/12/21 12:54:49;;;;;;;1.80;1.73;;;13.20;98.00;;;;;;4978639;28;20505;-73
2022/12/21 12:57:25;;;;;;;3.60;2.00;;;13.10;98.00;;;;;;4994892;28;20481;-75
2022/12/21 12:59:59;;;;;;;2.37;1.90;;;13.00;98.00;;;;;;4995998;28;20548;-75
2022/12/21 13:02:36;;;;;;;3.37;1.97;;;12.80;98.00;;;;;;4996028;28;20464;-75
2022/12/21 13:05:17;;;;;;;3.90;2.00;;;12.60;98.00;;;;;;4995766;28;20507;-75
2022/12/21 13:07:52;;;;;;;2.77;1.83;;;12.50;98.00;;;;;;4995357;28;21161;-75
2022/12/21 13:10:28;;;;;;;2.30;1.70;;;12.40;98.00;;;;;;4995616;28;20477;-75
2022/12/21 13:13:05;;;;;;;2.53;2.00;;;12.40;98.00;;;;;;4995328;28;20553;-75
2022/12/21 13:15:41;;;;;;;2.33;1.73;;;12.30;98.00;;;;;;4995291;28;20490;-75
2022/12/21 13:18:14;;;;;;;2.27;1.77;;;12.20;98.00;;;;;;4995569;28;20470;-75
2022/12/21 13:20:43;;;;;;;4.70;2.50;;;12.20;98.00;;;;;;4978098;28;20478;-75
2022/12/21 13:23:13;;;;;;;2.40;1.70;;;12.30;98.00;;;;;;4994833;28;20464;-75
2022/12/21 13:25:45;;;;;;;1.80;1.70;;;12.30;98.00;;;;;;4995281;28;20459;-75
2022/12/21 13:28:21;;;;;;;3.00;1.77;;;12.30;98.00;;;;;;4995163;28;21123;-75